Terminal Aerodrome Forecast
Issued by NWS

Home | Current Version | Previous Version | Text Only | Print | Product List | Glossary On
Versions: 1 2 3 4 5 6 7 8 9 10 11 12
490
FTUS45 KREV 251725
TAFMMH
TAF
KMMH 251725Z 2518/2618 14007KT P6SM FEW140
     FM252000 24011G20KT P6SM FEW060 SCT140
     FM252300 25013G22KT P6SM VCSH SCT060 BKN140
     FM260200 28012G22KT P6SM SCT060 SCT140
     FM260600 VRB04KT P6SM SKC=

USA.gov is the U.S. government's official web portal to all federal, state and local government web resources and services.